sensor_id;sensor_type;location;lat;lon;timestamp;temperature;humidity
33717;DHT22;20046;50.746;7.072;2023-08-30T00:02:23;15.10;99.90
33717;DHT22;20046;50.746;7.072;2023-08-30T00:04:49;15.10;99.90
33717;DHT22;20046;50.746;7.072;2023-08-30T00:07:14;15.10;99.90
33717;DHT22;20046;50.746;7.072;2023-08-30T00:09:40;15.00;99.90
33717;DHT22;20046;50.746;7.072;2023-08-30T00:12:06;15.00;99.90
33717;DHT22;20046;50.746;7.072;2023-08-30T00:14:31;15.00;99.90
33717;DHT22;20046;50.746;7.072;2023-08-30T00:16:58;15.00;99.90
33717;DHT22;20046;50.746;7.072;2023-08-30T00:19:23;15.00;99.90
33717;DHT22;20046;50.746;7.072;2023-08-30T00:21:49;15.00;99.90
33717;DHT22;20046;50.746;7.072;2023-08-30T00:24:14;14.90;99.90
33717;DHT22;20046;50.746;7.072;2023-08-30T00:26:40;14.90;99.90
33717;DHT22;20046;50.746;7.072;2023-08-30T00:29:05;14.90;99.90
33717;DHT22;20046;50.746;7.072;2023-08-30T00:31:31;14.90;99.90
33717;DHT22;20046;50.746;7.072;2023-08-30T00:33:57;14.80;99.90
33717;DHT22;20046;50.746;7.072;2023-08-30T00:36:22;14.80;99.90
33717;DHT22;20046;50.746;7.072;2023-08-30T00:38:48;14.70;99.90
33717;DHT22;20046;50.746;7.072;2023-08-30T00:41:14;14.70;99.90
33717;DHT22;20046;50.746;7.072;2023-08-30T00:43:40;14.60;99.90
33717;DHT22;20046;50.746;7.072;2023-08-30T00:46:05;14.60;99.90
33717;DHT22;20046;50.746;7.072;2023-08-30T00:48:31;14.60;99.90
33717;DHT22;20046;50.746;7.072;2023-08-30T00:50:56;14.60;99.90
33717;DHT22;20046;50.746;7.072;2023-08-30T00:53:22;14.60;99.90
33717;DHT22;20046;50.746;7.072;2023-08-30T00:55:48;14.60;99.90
33717;DHT22;20046;50.746;7.072;2023-08-30T00:58:14;14.60;99.90
33717;DHT22;20046;50.746;7.072;2023-08-30T01:00:40;14.60;99.90
33717;DHT22;20046;50.746;7.072;2023-08-30T01:03:06;14.60;99.90
33717;DHT22;20046;50.746;7.072;2023-08-30T01:05:32;14.60;99.90
33717;DHT22;20046;50.746;7.072;2023-08-30T01:07:58;14.70;99.90
33717;DHT22;20046;50.746;7.072;2023-08-30T01:10:41;14.70;99.90
33717;DHT22;20046;50.746;7.072;2023-08-30T01:13:12;14.70;99.90
33717;DHT22;20046;50.746;7.072;2023-08-30T01:15:41;14.70;99.90
33717;DHT22;20046;50.746;7.072;2023-08-30T01:18:09;14.70;99.90
33717;DHT22;20046;50.746;7.072;2023-08-30T01:20:37;14.70;99.90
33717;DHT22;20046;50.746;7.072;2023-08-30T01:23:29;14.70;99.90
33717;DHT22;20046;50.746;7.072;2023-08-30T01:29:00;14.70;99.90
33717;DHT22;20046;50.746;7.072;2023-08-30T01:31:27;14.70;99.90
33717;DHT22;20046;50.746;7.072;2023-08-30T01:33:55;14.70;99.90
33717;DHT22;20046;50.746;7.072;2023-08-30T01:36:22;14.80;99.90
33717;DHT22;20046;50.746;7.072;2023-08-30T01:38:48;14.80;99.90
33717;DHT22;20046;50.746;7.072;2023-08-30T01:41:15;14.80;99.90
33717;DHT22;20046;50.746;7.072;2023-08-30T01:43:41;14.80;99.90
33717;DHT22;20046;50.746;7.072;2023-08-30T01:46:08;14.80;99.90
33717;DHT22;20046;50.746;7.072;2023-08-30T01:48:35;14.80;99.90
33717;DHT22;20046;50.746;7.072;2023-08-30T01:51:01;14.90;99.90
33717;DHT22;20046;50.746;7.072;2023-08-30T01:53:28;14.90;99.90
33717;DHT22;20046;50.746;7.072;2023-08-30T01:55:54;14.90;99.90
33717;DHT22;20046;50.746;7.072;2023-08-30T01:58:19;14.90;99.90
33717;DHT22;20046;50.746;7.072;2023-08-30T02:00:45;14.90;99.90
33717;DHT22;20046;50.746;7.072;2023-08-30T02:03:13;15.00;99.90
33717;DHT22;20046;50.746;7.072;2023-08-30T02:06:00;15.00;99.90
33717;DHT22;20046;50.746;7.072;2023-08-30T02:08:35;15.00;99.90
33717;DHT22;20046;50.746;7.072;2023-08-30T02:11:08;15.00;99.90
33717;DHT22;20046;50.746;7.072;2023-08-30T02:13:36;15.00;99.90
33717;DHT22;20046;50.746;7.072;2023-08-30T02:16:04;15.00;99.90
33717;DHT22;20046;50.746;7.072;2023-08-30T02:18:30;15.10;99.90
33717;DHT22;20046;50.746;7.072;2023-08-30T02:20:55;15.10;99.90
33717;DHT22;20046;50.746;7.072;2023-08-30T02:23:25;15.10;99.90
33717;DHT22;20046;50.746;7.072;2023-08-30T02:25:51;15.10;99.90
33717;DHT22;20046;50.746;7.072;2023-08-30T02:28:16;15.10;99.90
33717;DHT22;20046;50.746;7.072;2023-08-30T02:30:42;15.10;99.90
33717;DHT22;20046;50.746;7.072;2023-08-30T02:33:07;15.10;99.90
33717;DHT22;20046;50.746;7.072;2023-08-30T02:35:33;15.10;99.90
33717;DHT22;20046;50.746;7.072;2023-08-30T02:37:58;15.20;99.90
33717;DHT22;20046;50.746;7.072;2023-08-30T02:40:24;15.10;99.90
33717;DHT22;20046;50.746;7.072;2023-08-30T02:42:50;15.10;99.90
33717;DHT22;20046;50.746;7.072;2023-08-30T02:45:15;15.10;99.90
33717;DHT22;20046;50.746;7.072;2023-08-30T02:47:41;15.10;99.90
33717;DHT22;20046;50.746;7.072;2023-08-30T02:50:07;15.10;99.90
33717;DHT22;20046;50.746;7.072;2023-08-30T02:52:32;15.00;99.90
33717;DHT22;20046;50.746;7.072;2023-08-30T02:54:58;15.00;99.90
33717;DHT22;20046;50.746;7.072;2023-08-30T02:57:23;15.00;99.90
33717;DHT22;20046;50.746;7.072;2023-08-30T02:59:49;15.00;99.90
33717;DHT22;20046;50.746;7.072;2023-08-30T03:02:15;15.00;99.90
33717;DHT22;20046;50.746;7.072;2023-08-30T03:04:40;15.00;99.90
33717;DHT22;20046;50.746;7.072;2023-08-30T03:07:06;14.90;99.90
33717;DHT22;20046;50.746;7.072;2023-08-30T03:09:31;14.90;99.90
33717;DHT22;20046;50.746;7.072;2023-08-30T03:11:57;14.90;99.90
33717;DHT22;20046;50.746;7.072;2023-08-30T03:14:22;14.80;99.90
33717;DHT22;20046;50.746;7.072;2023-08-30T03:16:48;14.80;99.90
33717;DHT22;20046;50.746;7.072;2023-08-30T03:19:13;14.80;99.90
33717;DHT22;20046;50.746;7.072;2023-08-30T03:21:39;14.70;99.90
33717;DHT22;20046;50.746;7.072;2023-08-30T03:24:05;14.70;99.90
33717;DHT22;20046;50.746;7.072;2023-08-30T03:26:30;14.70;99.90
33717;DHT22;20046;50.746;7.072;2023-08-30T03:28:56;14.60;99.90
33717;DHT22;20046;50.746;7.072;2023-08-30T03:31:22;14.60;99.90
33717;DHT22;20046;50.746;7.072;2023-08-30T03:33:48;14.50;99.90
33717;DHT22;20046;50.746;7.072;2023-08-30T03:36:16;14.50;99.90
33717;DHT22;20046;50.746;7.072;2023-08-30T03:38:42;14.40;99.90
33717;DHT22;20046;50.746;7.072;2023-08-30T03:41:10;14.40;99.90
33717;DHT22;20046;50.746;7.072;2023-08-30T03:43:36;14.30;99.90
33717;DHT22;20046;50.746;7.072;2023-08-30T03:46:02;14.30;99.90
33717;DHT22;20046;50.746;7.072;2023-08-30T03:48:31;14.20;99.90
33717;DHT22;20046;50.746;7.072;2023-08-30T03:50:57;14.20;99.90
33717;DHT22;20046;50.746;7.072;2023-08-30T03:53:24;14.10;99.90
33717;DHT22;20046;50.746;7.072;2023-08-30T03:55:50;14.00;99.90
33717;DHT22;20046;50.746;7.072;2023-08-30T03:58:17;14.00;99.90
33717;DHT22;20046;50.746;7.072;2023-08-30T04:00:43;13.90;99.90
33717;DHT22;20046;50.746;7.072;2023-08-30T04:03:10;13.90;99.90
33717;DHT22;20046;50.746;7.072;2023-08-30T04:05:36;13.90;99.90
33717;DHT22;20046;50.746;7.072;2023-08-30T04:08:03;13.80;99.90
33717;DHT22;20046;50.746;7.072;2023-08-30T04:10:29;13.80;99.90
33717;DHT22;20046;50.746;7.072;2023-08-30T04:12:55;13.80;99.90
33717;DHT22;20046;50.746;7.072;2023-08-30T04:15:20;13.80;99.90
33717;DHT22;20046;50.746;7.072;2023-08-30T04:17:46;13.70;99.90
33717;DHT22;20046;50.746;7.072;2023-08-30T04:20:12;13.70;99.90
33717;DHT22;20046;50.746;7.072;2023-08-30T04:22:38;13.60;99.90
33717;DHT22;20046;50.746;7.072;2023-08-30T04:25:04;13.60;99.90
33717;DHT22;20046;50.746;7.072;2023-08-30T04:27:30;13.50;99.90
33717;DHT22;20046;50.746;7.072;2023-08-30T04:29:55;13.50;99.90
33717;DHT22;20046;50.746;7.072;2023-08-30T04:32:21;13.50;99.90
33717;DHT22;20046;50.746;7.072;2023-08-30T04:34:46;13.50;99.90
33717;DHT22;20046;50.746;7.072;2023-08-30T04:37:12;13.60;99.90
33717;DHT22;20046;50.746;7.072;2023-08-30T04:39:39;13.60;99.90
33717;DHT22;20046;50.746;7.072;2023-08-30T04:42:05;13.60;99.90
33717;DHT22;20046;50.746;7.072;2023-08-30T04:44:31;13.60;99.90
33717;DHT22;20046;50.746;7.072;2023-08-30T04:46:57;13.60;99.90
33717;DHT22;20046;50.746;7.072;2023-08-30T04:49:23;13.60;99.90
33717;DHT22;20046;50.746;7.072;2023-08-30T04:51:50;13.50;99.90
33717;DHT22;20046;50.746;7.072;2023-08-30T04:54:16;13.50;99.90
33717;DHT22;20046;50.746;7.072;2023-08-30T04:56:42;13.50;99.90
33717;DHT22;20046;50.746;7.072;2023-08-30T04:59:07;13.50;99.90
33717;DHT22;20046;50.746;7.072;2023-08-30T05:01:33;13.50;99.90
33717;DHT22;20046;50.746;7.072;2023-08-30T05:03:59;13.50;99.90
33717;DHT22;20046;50.746;7.072;2023-08-30T05:06:24;13.50;99.90
33717;DHT22;20046;50.746;7.072;2023-08-30T05:08:50;13.40;99.90
33717;DHT22;20046;50.746;7.072;2023-08-30T05:11:15;13.40;99.90
33717;DHT22;20046;50.746;7.072;2023-08-30T05:13:41;13.40;99.90
33717;DHT22;20046;50.746;7.072;2023-08-30T05:16:07;13.40;99.90
33717;DHT22;20046;50.746;7.072;2023-08-30T05:18:32;13.50;99.90
33717;DHT22;20046;50.746;7.072;2023-08-30T05:20:58;13.50;99.90
33717;DHT22;20046;50.746;7.072;2023-08-30T05:23:24;13.50;99.90
33717;DHT22;20046;50.746;7.072;2023-08-30T05:25:49;13.50;99.90
33717;DHT22;20046;50.746;7.072;2023-08-30T05:28:15;13.50;99.90
33717;DHT22;20046;50.746;7.072;2023-08-30T05:30:42;13.60;99.90
33717;DHT22;20046;50.746;7.072;2023-08-30T05:33:08;13.60;99.90
33717;DHT22;20046;50.746;7.072;2023-08-30T05:35:34;13.60;99.90
33717;DHT22;20046;50.746;7.072;2023-08-30T05:37:59;13.70;99.90
33717;DHT22;20046;50.746;7.072;2023-08-30T05:40:25;13.70;99.90
33717;DHT22;20046;50.746;7.072;2023-08-30T05:42:51;13.70;99.90
33717;DHT22;20046;50.746;7.072;2023-08-30T05:45:16;13.80;99.90
33717;DHT22;20046;50.746;7.072;2023-08-30T05:47:42;13.90;99.90
33717;DHT22;20046;50.746;7.072;2023-08-30T05:50:08;13.80;99.90
33717;DHT22;20046;50.746;7.072;2023-08-30T05:52:34;13.90;99.90
33717;DHT22;20046;50.746;7.072;2023-08-30T05:55:00;13.90;99.90
33717;DHT22;20046;50.746;7.072;2023-08-30T05:57:25;14.00;99.90
33717;DHT22;20046;50.746;7.072;2023-08-30T05:59:52;14.10;99.90
33717;DHT22;20046;50.746;7.072;2023-08-30T06:02:18;14.10;99.90
33717;DHT22;20046;50.746;7.072;2023-08-30T06:04:44;14.10;99.90
33717;DHT22;20046;50.746;7.072;2023-08-30T06:07:09;14.10;99.90
33717;DHT22;20046;50.746;7.072;2023-08-30T06:09:35;14.10;99.90
33717;DHT22;20046;50.746;7.072;2023-08-30T06:12:00;14.10;99.90
33717;DHT22;20046;50.746;7.072;2023-08-30T06:14:26;14.10;99.90
33717;DHT22;20046;50.746;7.072;2023-08-30T06:16:51;14.20;99.90
33717;DHT22;20046;50.746;7.072;2023-08-30T06:19:17;14.30;99.90
33717;DHT22;20046;50.746;7.072;2023-08-30T06:21:43;14.30;99.90
33717;DHT22;20046;50.746;7.072;2023-08-30T06:24:09;14.40;99.90
33717;DHT22;20046;50.746;7.072;2023-08-30T06:26:34;14.50;99.90
33717;DHT22;20046;50.746;7.072;2023-08-30T06:29:00;14.60;99.90
33717;DHT22;20046;50.746;7.072;2023-08-30T06:31:25;14.80;99.90
33717;DHT22;20046;50.746;7.072;2023-08-30T06:33:51;14.90;99.90
33717;DHT22;20046;50.746;7.072;2023-08-30T06:36:17;15.10;99.90
33717;DHT22;20046;50.746;7.072;2023-08-30T06:38:43;15.20;99.90
33717;DHT22;20046;50.746;7.072;2023-08-30T06:41:09;15.40;99.90
33717;DHT22;20046;50.746;7.072;2023-08-30T06:43:35;15.60;99.90
33717;DHT22;20046;50.746;7.072;2023-08-30T06:46:00;15.80;99.90
33717;DHT22;20046;50.746;7.072;2023-08-30T06:48:26;16.00;99.90
33717;DHT22;20046;50.746;7.072;2023-08-30T06:50:52;16.20;99.90
33717;DHT22;20046;50.746;7.072;2023-08-30T06:53:17;16.50;99.90
33717;DHT22;20046;50.746;7.072;2023-08-30T06:55:43;16.70;99.90
33717;DHT22;20046;50.746;7.072;2023-08-30T06:58:08;17.00;99.90
33717;DHT22;20046;50.746;7.072;2023-08-30T07:00:34;17.20;99.90
33717;DHT22;20046;50.746;7.072;2023-08-30T07:03:00;17.30;99.90
33717;DHT22;20046;50.746;7.072;2023-08-30T07:05:25;17.30;99.90
33717;DHT22;20046;50.746;7.072;2023-08-30T07:07:51;17.30;99.90
33717;DHT22;20046;50.746;7.072;2023-08-30T07:10:17;17.20;99.90
33717;DHT22;20046;50.746;7.072;2023-08-30T07:12:43;17.10;99.90
33717;DHT22;20046;50.746;7.072;2023-08-30T07:15:09;17.00;99.90
33717;DHT22;20046;50.746;7.072;2023-08-30T07:17:34;17.00;99.90
33717;DHT22;20046;50.746;7.072;2023-08-30T07:20:00;16.90;99.90
33717;DHT22;20046;50.746;7.072;2023-08-30T07:22:26;16.90;99.90
33717;DHT22;20046;50.746;7.072;2023-08-30T07:24:52;17.00;99.90
33717;DHT22;20046;50.746;7.072;2023-08-30T07:27:17;17.00;99.90
33717;DHT22;20046;50.746;7.072;2023-08-30T07:29:43;17.10;99.90
33717;DHT22;20046;50.746;7.072;2023-08-30T07:32:09;17.20;99.90
33717;DHT22;20046;50.746;7.072;2023-08-30T07:34:35;17.30;99.90
33717;DHT22;20046;50.746;7.072;2023-08-30T07:37:01;17.40;99.90
33717;DHT22;20046;50.746;7.072;2023-08-30T07:39:27;17.40;99.90
33717;DHT22;20046;50.746;7.072;2023-08-30T07:41:53;17.50;99.90
33717;DHT22;20046;50.746;7.072;2023-08-30T07:44:18;17.50;99.90
33717;DHT22;20046;50.746;7.072;2023-08-30T07:46:45;17.60;99.90
33717;DHT22;20046;50.746;7.072;2023-08-30T07:49:11;17.60;99.90
33717;DHT22;20046;50.746;7.072;2023-08-30T07:51:36;17.70;99.90
33717;DHT22;20046;50.746;7.072;2023-08-30T07:54:02;17.80;99.90
33717;DHT22;20046;50.746;7.072;2023-08-30T07:56:28;17.90;99.90
33717;DHT22;20046;50.746;7.072;2023-08-30T07:58:54;18.10;99.90
33717;DHT22;20046;50.746;7.072;2023-08-30T08:01:20;18.20;99.90
33717;DHT22;20046;50.746;7.072;2023-08-30T08:03:46;18.30;99.90
33717;DHT22;20046;50.746;7.072;2023-08-30T08:06:12;18.50;99.90
33717;DHT22;20046;50.746;7.072;2023-08-30T08:08:37;18.60;99.90
33717;DHT22;20046;50.746;7.072;2023-08-30T08:11:03;18.70;99.90
33717;DHT22;20046;50.746;7.072;2023-08-30T08:13:29;18.90;99.90
33717;DHT22;20046;50.746;7.072;2023-08-30T08:15:56;19.00;99.90
33717;DHT22;20046;50.746;7.072;2023-08-30T08:18:22;19.20;99.90
33717;DHT22;20046;50.746;7.072;2023-08-30T08:20:48;19.50;99.90
33717;DHT22;20046;50.746;7.072;2023-08-30T08:23:13;19.90;99.90
33717;DHT22;20046;50.746;7.072;2023-08-30T08:25:40;20.60;99.90
33717;DHT22;20046;50.746;7.072;2023-08-30T08:28:05;21.40;99.90
33717;DHT22;20046;50.746;7.072;2023-08-30T08:30:31;22.30;99.90
33717;DHT22;20046;50.746;7.072;2023-08-30T08:32:57;23.00;99.90
33717;DHT22;20046;50.746;7.072;2023-08-30T08:35:23;23.50;99.90
33717;DHT22;20046;50.746;7.072;2023-08-30T08:37:48;23.70;99.90
33717;DHT22;20046;50.746;7.072;2023-08-30T08:40:14;24.00;99.90
33717;DHT22;20046;50.746;7.072;2023-08-30T08:42:41;24.30;99.90
33717;DHT22;20046;50.746;7.072;2023-08-30T08:45:07;24.50;99.90
33717;DHT22;20046;50.746;7.072;2023-08-30T08:47:35;24.40;99.90
33717;DHT22;20046;50.746;7.072;2023-08-30T08:50:01;24.40;99.60
33717;DHT22;20046;50.746;7.072;2023-08-30T08:52:29;24.30;99.40
33717;DHT22;20046;50.746;7.072;2023-08-30T08:54:55;24.10;99.50
33717;DHT22;20046;50.746;7.072;2023-08-30T08:57:21;24.30;99.40
33717;DHT22;20046;50.746;7.072;2023-08-30T08:59:47;24.40;99.00
33717;DHT22;20046;50.746;7.072;2023-08-30T09:02:14;24.70;99.20
33717;DHT22;20046;50.746;7.072;2023-08-30T09:04:40;25.00;98.30
33717;DHT22;20046;50.746;7.072;2023-08-30T09:07:06;25.40;98.40
33717;DHT22;20046;50.746;7.072;2023-08-30T09:09:33;25.20;97.80
33717;DHT22;20046;50.746;7.072;2023-08-30T09:11:58;24.70;98.00
33717;DHT22;20046;50.746;7.072;2023-08-30T09:14:24;24.10;98.30
33717;DHT22;20046;50.746;7.072;2023-08-30T09:17:00;23.60;98.60
33717;DHT22;20046;50.746;7.072;2023-08-30T09:19:29;23.30;99.80
33717;DHT22;20046;50.746;7.072;2023-08-30T09:21:56;23.30;99.80
33717;DHT22;20046;50.746;7.072;2023-08-30T09:24:22;23.00;99.90
33717;DHT22;20046;50.746;7.072;2023-08-30T09:26:49;22.70;99.90
33717;DHT22;20046;50.746;7.072;2023-08-30T09:29:17;22.30;99.90
33717;DHT22;20046;50.746;7.072;2023-08-30T09:31:43;21.90;99.90
33717;DHT22;20046;50.746;7.072;2023-08-30T09:34:09;21.70;99.90
33717;DHT22;20046;50.746;7.072;2023-08-30T09:36:40;21.70;99.90
33717;DHT22;20046;50.746;7.072;2023-08-30T09:39:10;21.50;99.90
33717;DHT22;20046;50.746;7.072;2023-08-30T09:41:40;21.30;99.90
33717;DHT22;20046;50.746;7.072;2023-08-30T09:44:12;21.20;99.90
33717;DHT22;20046;50.746;7.072;2023-08-30T09:46:52;21.20;99.90
33717;DHT22;20046;50.746;7.072;2023-08-30T09:49:21;21.20;99.90
33717;DHT22;20046;50.746;7.072;2023-08-30T09:51:49;21.30;99.90
33717;DHT22;20046;50.746;7.072;2023-08-30T09:54:16;21.30;99.90
33717;DHT22;20046;50.746;7.072;2023-08-30T09:56:43;21.30;99.90
33717;DHT22;20046;50.746;7.072;2023-08-30T09:59:13;21.20;99.90
33717;DHT22;20046;50.746;7.072;2023-08-30T10:01:45;21.10;99.90
33717;DHT22;20046;50.746;7.072;2023-08-30T10:04:11;21.00;99.90
33717;DHT22;20046;50.746;7.072;2023-08-30T10:06:37;20.80;99.90
33717;DHT22;20046;50.746;7.072;2023-08-30T10:09:04;20.60;99.90
33717;DHT22;20046;50.746;7.072;2023-08-30T10:11:32;20.60;99.90
33717;DHT22;20046;50.746;7.072;2023-08-30T10:13:59;20.50;99.90
33717;DHT22;20046;50.746;7.072;2023-08-30T10:16:26;20.50;99.90
33717;DHT22;20046;50.746;7.072;2023-08-30T10:18:59;20.50;99.90
33717;DHT22;20046;50.746;7.072;2023-08-30T10:21:27;20.40;99.90
33717;DHT22;20046;50.746;7.072;2023-08-30T10:23:55;20.20;99.90
33717;DHT22;20046;50.746;7.072;2023-08-30T10:26:26;20.00;99.90
33717;DHT22;20046;50.746;7.072;2023-08-30T10:28:54;19.80;99.90
33717;DHT22;20046;50.746;7.072;2023-08-30T10:31:20;19.60;99.90
33717;DHT22;20046;50.746;7.072;2023-08-30T10:33:50;19.60;99.90
33717;DHT22;20046;50.746;7.072;2023-08-30T10:36:25;19.50;99.90
33717;DHT22;20046;50.746;7.072;2023-08-30T10:38:53;19.50;99.90
33717;DHT22;20046;50.746;7.072;2023-08-30T10:41:25;19.50;99.90
33717;DHT22;20046;50.746;7.072;2023-08-30T10:43:57;19.60;99.90
33717;DHT22;20046;50.746;7.072;2023-08-30T10:46:33;19.60;99.90
33717;DHT22;20046;50.746;7.072;2023-08-30T10:49:09;19.60;99.90
33717;DHT22;20046;50.746;7.072;2023-08-30T10:51:38;19.60;99.90
33717;DHT22;20046;50.746;7.072;2023-08-30T10:54:17;19.70;99.90
33717;DHT22;20046;50.746;7.072;2023-08-30T10:56:54;19.80;99.90
33717;DHT22;20046;50.746;7.072;2023-08-30T10:59:22;20.10;99.90
33717;DHT22;20046;50.746;7.072;2023-08-30T11:01:50;20.30;99.90
33717;DHT22;20046;50.746;7.072;2023-08-30T11:04:19;20.60;99.90
33717;DHT22;20046;50.746;7.072;2023-08-30T11:06:46;20.80;99.90
33717;DHT22;20046;50.746;7.072;2023-08-30T11:09:13;21.20;99.90
33717;DHT22;20046;50.746;7.072;2023-08-30T11:11:40;21.40;99.90
33717;DHT22;20046;50.746;7.072;2023-08-30T11:14:08;21.60;99.90
33717;DHT22;20046;50.746;7.072;2023-08-30T11:16:35;21.60;99.90
33717;DHT22;20046;50.746;7.072;2023-08-30T11:19:02;21.40;99.90
33717;DHT22;20046;50.746;7.072;2023-08-30T11:21:30;21.30;99.90
33717;DHT22;20046;50.746;7.072;2023-08-30T11:23:56;21.00;99.90
33717;DHT22;20046;50.746;7.072;2023-08-30T11:26:22;20.80;99.90
33717;DHT22;20046;50.746;7.072;2023-08-30T11:28:47;20.60;99.90
33717;DHT22;20046;50.746;7.072;2023-08-30T11:31:22;20.30;99.90
33717;DHT22;20046;50.746;7.072;2023-08-30T11:33:52;20.10;99.90
33717;DHT22;20046;50.746;7.072;2023-08-30T11:36:20;19.90;99.90
33717;DHT22;20046;50.746;7.072;2023-08-30T11:38:46;19.70;99.90
33717;DHT22;20046;50.746;7.072;2023-08-30T11:41:12;19.40;99.90
33717;DHT22;20046;50.746;7.072;2023-08-30T11:43:38;19.30;99.90
33717;DHT22;20046;50.746;7.072;2023-08-30T11:46:05;19.10;99.90
33717;DHT22;20046;50.746;7.072;2023-08-30T11:48:31;18.90;99.90
33717;DHT22;20046;50.746;7.072;2023-08-30T11:50:58;18.80;99.90
33717;DHT22;20046;50.746;7.072;2023-08-30T11:53:24;18.60;99.90
33717;DHT22;20046;50.746;7.072;2023-08-30T11:55:51;18.40;99.90
33717;DHT22;20046;50.746;7.072;2023-08-30T11:58:20;18.20;99.90
33717;DHT22;20046;50.746;7.072;2023-08-30T12:00:48;18.00;99.90
33717;DHT22;20046;50.746;7.072;2023-08-30T12:03:15;17.90;99.90
33717;DHT22;20046;50.746;7.072;2023-08-30T12:05:47;17.70;99.90
33717;DHT22;20046;50.746;7.072;2023-08-30T12:08:26;17.50;99.90
33717;DHT22;20046;50.746;7.072;2023-08-30T12:10:53;17.50;99.90
33717;DHT22;20046;50.746;7.072;2023-08-30T12:13:26;17.40;99.90
33717;DHT22;20046;50.746;7.072;2023-08-30T12:15:59;17.40;99.90
33717;DHT22;20046;50.746;7.072;2023-08-30T12:18:26;17.30;99.90
33717;DHT22;20046;50.746;7.072;2023-08-30T12:21:00;17.30;99.90
33717;DHT22;20046;50.746;7.072;2023-08-30T12:23:28;17.20;99.90
33717;DHT22;20046;50.746;7.072;2023-08-30T12:28:23;17.20;99.90
33717;DHT22;20046;50.746;7.072;2023-08-30T12:30:49;17.20;99.90
33717;DHT22;20046;50.746;7.072;2023-08-30T12:33:17;17.10;99.90
33717;DHT22;20046;50.746;7.072;2023-08-30T12:35:43;17.10;99.90
33717;DHT22;20046;50.746;7.072;2023-08-30T12:38:09;16.90;99.90
33717;DHT22;20046;50.746;7.072;2023-08-30T12:40:35;16.90;99.90
33717;DHT22;20046;50.746;7.072;2023-08-30T12:43:01;16.80;99.90
33717;DHT22;20046;50.746;7.072;2023-08-30T12:45:26;16.80;99.90
33717;DHT22;20046;50.746;7.072;2023-08-30T12:47:52;16.70;99.90
33717;DHT22;20046;50.746;7.072;2023-08-30T12:50:17;16.70;99.90
33717;DHT22;20046;50.746;7.072;2023-08-30T12:52:43;16.70;99.90
33717;DHT22;20046;50.746;7.072;2023-08-30T12:55:09;16.70;99.90
33717;DHT22;20046;50.746;7.072;2023-08-30T12:57:34;16.80;99.90
33717;DHT22;20046;50.746;7.072;2023-08-30T13:00:00;16.80;99.90
33717;DHT22;20046;50.746;7.072;2023-08-30T13:02:25;16.90;99.90
33717;DHT22;20046;50.746;7.072;2023-08-30T13:04:51;17.10;99.90
33717;DHT22;20046;50.746;7.072;2023-08-30T13:07:16;17.20;99.90
33717;DHT22;20046;50.746;7.072;2023-08-30T13:09:42;17.20;99.90
33717;DHT22;20046;50.746;7.072;2023-08-30T13:12:08;17.30;99.90
33717;DHT22;20046;50.746;7.072;2023-08-30T13:14:33;17.30;99.90
33717;DHT22;20046;50.746;7.072;2023-08-30T13:16:59;17.30;99.90
33717;DHT22;20046;50.746;7.072;2023-08-30T13:19:24;17.40;99.90
33717;DHT22;20046;50.746;7.072;2023-08-30T13:21:50;17.40;99.90
33717;DHT22;20046;50.746;7.072;2023-08-30T13:24:16;17.40;99.90
33717;DHT22;20046;50.746;7.072;2023-08-30T13:26:42;17.40;99.90
33717;DHT22;20046;50.746;7.072;2023-08-30T13:29:07;17.40;99.90
33717;DHT22;20046;50.746;7.072;2023-08-30T13:31:33;17.30;99.90
33717;DHT22;20046;50.746;7.072;2023-08-30T13:33:58;17.30;99.90
33717;DHT22;20046;50.746;7.072;2023-08-30T13:36:24;17.30;99.90
33717;DHT22;20046;50.746;7.072;2023-08-30T13:38:50;17.30;99.90
33717;DHT22;20046;50.746;7.072;2023-08-30T13:41:15;17.20;99.90
33717;DHT22;20046;50.746;7.072;2023-08-30T13:43:41;17.20;99.90
33717;DHT22;20046;50.746;7.072;2023-08-30T13:46:06;17.20;99.90
33717;DHT22;20046;50.746;7.072;2023-08-30T13:48:32;17.20;99.90
33717;DHT22;20046;50.746;7.072;2023-08-30T13:50:58;17.20;99.90
33717;DHT22;20046;50.746;7.072;2023-08-30T13:53:23;17.20;99.90
33717;DHT22;20046;50.746;7.072;2023-08-30T13:55:50;17.20;99.90
33717;DHT22;20046;50.746;7.072;2023-08-30T13:58:16;17.20;99.90
33717;DHT22;20046;50.746;7.072;2023-08-30T14:00:41;17.10;99.90
33717;DHT22;20046;50.746;7.072;2023-08-30T14:03:07;17.10;99.90
33717;DHT22;20046;50.746;7.072;2023-08-30T14:05:35;17.10;99.90
33717;DHT22;20046;50.746;7.072;2023-08-30T14:08:01;17.10;99.90
33717;DHT22;20046;50.746;7.072;2023-08-30T14:10:27;17.10;99.90
33717;DHT22;20046;50.746;7.072;2023-08-30T14:12:53;17.20;99.90
33717;DHT22;20046;50.746;7.072;2023-08-30T14:15:20;17.20;99.90
33717;DHT22;20046;50.746;7.072;2023-08-30T14:17:45;17.30;99.90
33717;DHT22;20046;50.746;7.072;2023-08-30T14:20:11;17.40;99.90
33717;DHT22;20046;50.746;7.072;2023-08-30T14:22:37;17.40;99.90
33717;DHT22;20046;50.746;7.072;2023-08-30T14:25:03;17.40;99.90
33717;DHT22;20046;50.746;7.072;2023-08-30T14:27:30;17.40;99.90
33717;DHT22;20046;50.746;7.072;2023-08-30T14:29:55;17.40;99.90
33717;DHT22;20046;50.746;7.072;2023-08-30T14:32:21;17.30;99.90
33717;DHT22;20046;50.746;7.072;2023-08-30T14:34:47;17.30;99.90
33717;DHT22;20046;50.746;7.072;2023-08-30T14:37:12;17.10;99.90
33717;DHT22;20046;50.746;7.072;2023-08-30T14:39:38;16.80;99.90
33717;DHT22;20046;50.746;7.072;2023-08-30T14:42:03;16.40;99.90
33717;DHT22;20046;50.746;7.072;2023-08-30T14:44:29;16.20;99.90
33717;DHT22;20046;50.746;7.072;2023-08-30T14:46:55;16.00;99.90
33717;DHT22;20046;50.746;7.072;2023-08-30T14:49:20;15.90;99.90
33717;DHT22;20046;50.746;7.072;2023-08-30T14:51:46;15.80;99.90
33717;DHT22;20046;50.746;7.072;2023-08-30T14:54:11;15.70;99.90
33717;DHT22;20046;50.746;7.072;2023-08-30T14:56:37;15.70;99.90
33717;DHT22;20046;50.746;7.072;2023-08-30T14:59:02;15.60;99.90
33717;DHT22;20046;50.746;7.072;2023-08-30T15:01:28;15.50;99.90
33717;DHT22;20046;50.746;7.072;2023-08-30T15:03:53;15.50;99.90
33717;DHT22;20046;50.746;7.072;2023-08-30T15:06:19;15.50;99.90
33717;DHT22;20046;50.746;7.072;2023-08-30T15:08:44;15.50;99.90
33717;DHT22;20046;50.746;7.072;2023-08-30T15:11:10;15.50;99.90
33717;DHT22;20046;50.746;7.072;2023-08-30T15:13:36;15.60;99.90
33717;DHT22;20046;50.746;7.072;2023-08-30T15:16:03;15.60;99.90
33717;DHT22;20046;50.746;7.072;2023-08-30T15:18:29;15.60;99.90
33717;DHT22;20046;50.746;7.072;2023-08-30T15:20:55;15.70;99.90
33717;DHT22;20046;50.746;7.072;2023-08-30T15:23:21;15.90;99.90
33717;DHT22;20046;50.746;7.072;2023-08-30T15:25:47;15.90;99.90
33717;DHT22;20046;50.746;7.072;2023-08-30T15:28:13;16.00;99.90
33717;DHT22;20046;50.746;7.072;2023-08-30T15:30:46;16.10;99.90
33717;DHT22;20046;50.746;7.072;2023-08-30T15:33:12;16.50;99.90